sensor_id;sensor_type;location;lat;lon;timestamp;P1;durP1;ratioP1;P2;durP2;ratioP2
27670;SDS011;15077;49.704;9.908;2023-01-30T00:00:34;23.95;;;14.00;;
27670;SDS011;15077;49.704;9.908;2023-01-30T00:03:00;24.40;;;14.60;;
27670;SDS011;15077;49.704;9.908;2023-01-30T00:05:26;26.33;;;15.70;;
27670;SDS011;15077;49.704;9.908;2023-01-30T00:07:52;22.95;;;14.80;;
27670;SDS011;15077;49.704;9.908;2023-01-30T00:10:18;25.02;;;14.57;;
27670;SDS011;15077;49.704;9.908;2023-01-30T00:12:44;29.55;;;15.70;;
27670;SDS011;15077;49.704;9.908;2023-01-30T00:15:09;25.25;;;15.32;;
27670;SDS011;15077;49.704;9.908;2023-01-30T00:17:35;26.10;;;14.80;;
27670;SDS011;15077;49.704;9.908;2023-01-30T00:20:01;23.27;;;13.68;;
27670;SDS011;15077;49.704;9.908;2023-01-30T00:22:28;24.85;;;13.73;;
27670;SDS011;15077;49.704;9.908;2023-01-30T00:24:54;21.95;;;13.45;;
27670;SDS011;15077;49.704;9.908;2023-01-30T00:27:20;22.95;;;13.88;;
27670;SDS011;15077;49.704;9.908;2023-01-30T00:29:46;28.55;;;16.20;;
27670;SDS011;15077;49.704;9.908;2023-01-30T00:32:11;21.77;;;13.20;;
27670;SDS011;15077;49.704;9.908;2023-01-30T00:34:37;27.42;;;17.13;;
27670;SDS011;15077;49.704;9.908;2023-01-30T00:37:03;33.95;;;17.50;;
27670;SDS011;15077;49.704;9.908;2023-01-30T00:39:28;28.33;;;15.20;;
27670;SDS011;15077;49.704;9.908;2023-01-30T00:41:54;24.30;;;13.63;;
27670;SDS011;15077;49.704;9.908;2023-01-30T00:44:39;26.00;;;15.43;;
27670;SDS011;15077;49.704;9.908;2023-01-30T00:47:23;28.70;;;16.30;;
27670;SDS011;15077;49.704;9.908;2023-01-30T00:49:49;27.40;;;14.88;;
27670;SDS011;15077;49.704;9.908;2023-01-30T00:52:15;23.88;;;14.57;;
27670;SDS011;15077;49.704;9.908;2023-01-30T00:54:40;24.23;;;14.50;;
27670;SDS011;15077;49.704;9.908;2023-01-30T00:57:06;26.77;;;14.95;;
27670;SDS011;15077;49.704;9.908;2023-01-30T00:59:32;27.92;;;16.00;;
27670;SDS011;15077;49.704;9.908;2023-01-30T01:01:58;30.20;;;16.77;;
27670;SDS011;15077;49.704;9.908;2023-01-30T01:04:24;27.65;;;16.42;;
27670;SDS011;15077;49.704;9.908;2023-01-30T01:06:50;25.48;;;15.48;;
27670;SDS011;15077;49.704;9.908;2023-01-30T01:09:16;33.42;;;19.17;;
27670;SDS011;15077;49.704;9.908;2023-01-30T01:11:42;30.38;;;16.83;;
27670;SDS011;15077;49.704;9.908;2023-01-30T01:14:08;29.55;;;17.27;;
27670;SDS011;15077;49.704;9.908;2023-01-30T01:16:33;25.50;;;15.60;;
27670;SDS011;15077;49.704;9.908;2023-01-30T01:19:01;28.15;;;16.05;;
27670;SDS011;15077;49.704;9.908;2023-01-30T01:21:27;30.52;;;18.00;;
27670;SDS011;15077;49.704;9.908;2023-01-30T01:23:55;31.38;;;18.30;;
27670;SDS011;15077;49.704;9.908;2023-01-30T01:26:23;31.45;;;18.27;;
27670;SDS011;15077;49.704;9.908;2023-01-30T01:28:54;31.98;;;16.77;;
27670;SDS011;15077;49.704;9.908;2023-01-30T01:31:21;32.20;;;17.83;;
27670;SDS011;15077;49.704;9.908;2023-01-30T01:33:49;28.05;;;17.38;;
27670;SDS011;15077;49.704;9.908;2023-01-30T01:36:16;30.23;;;16.27;;
27670;SDS011;15077;49.704;9.908;2023-01-30T01:38:42;26.67;;;16.65;;
27670;SDS011;15077;49.704;9.908;2023-01-30T01:41:09;26.35;;;15.52;;
27670;SDS011;15077;49.704;9.908;2023-01-30T01:46:35;29.27;;;17.90;;
27670;SDS011;15077;49.704;9.908;2023-01-30T01:49:42;31.25;;;18.13;;
27670;SDS011;15077;49.704;9.908;2023-01-30T01:52:03;33.33;;;17.23;;
27670;SDS011;15077;49.704;9.908;2023-01-30T01:54:46;30.40;;;16.98;;
27670;SDS011;15077;49.704;9.908;2023-01-30T01:57:23;26.58;;;13.98;;
27670;SDS011;15077;49.704;9.908;2023-01-30T02:00:16;27.98;;;15.82;;
27670;SDS011;15077;49.704;9.908;2023-01-30T02:02:46;27.98;;;15.52;;
27670;SDS011;15077;49.704;9.908;2023-01-30T02:05:22;24.20;;;14.48;;
27670;SDS011;15077;49.704;9.908;2023-01-30T02:08:16;26.90;;;15.85;;
27670;SDS011;15077;49.704;9.908;2023-01-30T02:11:04;28.95;;;16.27;;
27670;SDS011;15077;49.704;9.908;2023-01-30T02:13:43;28.45;;;16.48;;
27670;SDS011;15077;49.704;9.908;2023-01-30T02:16:12;28.23;;;16.52;;
27670;SDS011;15077;49.704;9.908;2023-01-30T02:18:39;28.08;;;16.08;;
27670;SDS011;15077;49.704;9.908;2023-01-30T02:27:13;35.13;;;18.83;;
27670;SDS011;15077;49.704;9.908;2023-01-30T02:38:08;27.30;;;15.75;;
27670;SDS011;15077;49.704;9.908;2023-01-30T02:44:03;27.88;;;16.90;;
27670;SDS011;15077;49.704;9.908;2023-01-30T02:52:02;28.52;;;15.18;;
27670;SDS011;15077;49.704;9.908;2023-01-30T02:54:31;32.33;;;16.02;;
27670;SDS011;15077;49.704;9.908;2023-01-30T02:56:57;27.33;;;15.15;;
27670;SDS011;15077;49.704;9.908;2023-01-30T02:59:33;26.63;;;14.93;;
27670;SDS011;15077;49.704;9.908;2023-01-30T03:04:48;27.17;;;15.05;;
27670;SDS011;15077;49.704;9.908;2023-01-30T03:10:36;24.23;;;14.18;;
27670;SDS011;15077;49.704;9.908;2023-01-30T03:19:02;22.10;;;12.68;;
27670;SDS011;15077;49.704;9.908;2023-01-30T03:21:39;23.70;;;13.40;;
27670;SDS011;15077;49.704;9.908;2023-01-30T03:24:09;24.30;;;13.40;;
27670;SDS011;15077;49.704;9.908;2023-01-30T03:26:39;22.83;;;13.50;;
27670;SDS011;15077;49.704;9.908;2023-01-30T03:29:24;26.95;;;14.00;;
27670;SDS011;15077;49.704;9.908;2023-01-30T03:31:52;23.98;;;13.70;;
27670;SDS011;15077;49.704;9.908;2023-01-30T03:34:22;22.45;;;12.32;;
27670;SDS011;15077;49.704;9.908;2023-01-30T03:36:48;22.10;;;12.60;;
27670;SDS011;15077;49.704;9.908;2023-01-30T03:39:14;25.85;;;14.48;;
27670;SDS011;15077;49.704;9.908;2023-01-30T03:41:42;22.50;;;12.82;;
27670;SDS011;15077;49.704;9.908;2023-01-30T03:44:10;21.58;;;13.00;;
27670;SDS011;15077;49.704;9.908;2023-01-30T03:46:36;22.23;;;12.02;;
27670;SDS011;15077;49.704;9.908;2023-01-30T03:49:04;20.85;;;12.05;;
27670;SDS011;15077;49.704;9.908;2023-01-30T03:51:31;24.15;;;13.35;;
27670;SDS011;15077;49.704;9.908;2023-01-30T03:53:57;23.80;;;13.65;;
27670;SDS011;15077;49.704;9.908;2023-01-30T03:56:23;21.42;;;12.60;;
27670;SDS011;15077;49.704;9.908;2023-01-30T03:58:49;23.55;;;13.57;;
27670;SDS011;15077;49.704;9.908;2023-01-30T04:01:14;23.90;;;13.52;;
27670;SDS011;15077;49.704;9.908;2023-01-30T04:03:41;24.02;;;13.30;;
27670;SDS011;15077;49.704;9.908;2023-01-30T04:06:07;23.95;;;13.77;;
27670;SDS011;15077;49.704;9.908;2023-01-30T04:08:34;23.98;;;13.13;;
27670;SDS011;15077;49.704;9.908;2023-01-30T04:11:01;21.08;;;13.07;;
27670;SDS011;15077;49.704;9.908;2023-01-30T04:13:31;25.00;;;13.70;;
27670;SDS011;15077;49.704;9.908;2023-01-30T04:16:17;20.33;;;11.90;;
27670;SDS011;15077;49.704;9.908;2023-01-30T04:18:46;21.33;;;12.45;;
27670;SDS011;15077;49.704;9.908;2023-01-30T04:21:13;21.08;;;12.18;;
27670;SDS011;15077;49.704;9.908;2023-01-30T04:23:40;24.27;;;14.02;;
27670;SDS011;15077;49.704;9.908;2023-01-30T04:26:06;23.33;;;12.57;;
27670;SDS011;15077;49.704;9.908;2023-01-30T04:28:33;23.65;;;12.32;;
27670;SDS011;15077;49.704;9.908;2023-01-30T04:31:00;24.75;;;13.88;;
27670;SDS011;15077;49.704;9.908;2023-01-30T04:33:31;20.10;;;12.02;;
27670;SDS011;15077;49.704;9.908;2023-01-30T04:36:04;22.92;;;11.80;;
27670;SDS011;15077;49.704;9.908;2023-01-30T04:38:33;23.25;;;13.60;;
27670;SDS011;15077;49.704;9.908;2023-01-30T04:41:00;38.95;;;19.02;;
27670;SDS011;15077;49.704;9.908;2023-01-30T04:43:26;27.15;;;13.57;;
27670;SDS011;15077;49.704;9.908;2023-01-30T04:45:53;24.25;;;14.43;;
27670;SDS011;15077;49.704;9.908;2023-01-30T04:48:20;20.83;;;12.55;;
27670;SDS011;15077;49.704;9.908;2023-01-30T04:50:48;27.10;;;14.55;;
27670;SDS011;15077;49.704;9.908;2023-01-30T04:53:17;30.00;;;17.35;;
27670;SDS011;15077;49.704;9.908;2023-01-30T04:55:47;25.48;;;13.98;;
27670;SDS011;15077;49.704;9.908;2023-01-30T04:58:13;22.10;;;13.25;;
27670;SDS011;15077;49.704;9.908;2023-01-30T05:00:40;20.83;;;12.98;;
27670;SDS011;15077;49.704;9.908;2023-01-30T05:03:06;20.42;;;12.52;;
27670;SDS011;15077;49.704;9.908;2023-01-30T05:05:32;24.25;;;13.05;;
27670;SDS011;15077;49.704;9.908;2023-01-30T05:07:58;19.25;;;12.52;;
27670;SDS011;15077;49.704;9.908;2023-01-30T05:10:24;23.60;;;13.50;;
27670;SDS011;15077;49.704;9.908;2023-01-30T05:12:50;21.65;;;12.00;;
27670;SDS011;15077;49.704;9.908;2023-01-30T05:15:15;24.00;;;13.73;;
27670;SDS011;15077;49.704;9.908;2023-01-30T05:17:41;22.90;;;12.38;;
27670;SDS011;15077;49.704;9.908;2023-01-30T05:20:07;22.95;;;12.52;;
27670;SDS011;15077;49.704;9.908;2023-01-30T05:22:36;21.45;;;12.73;;
27670;SDS011;15077;49.704;9.908;2023-01-30T05:25:02;21.63;;;12.93;;
27670;SDS011;15077;49.704;9.908;2023-01-30T05:27:28;23.50;;;12.65;;
27670;SDS011;15077;49.704;9.908;2023-01-30T05:29:53;22.33;;;12.80;;
27670;SDS011;15077;49.704;9.908;2023-01-30T05:32:19;20.33;;;12.82;;
27670;SDS011;15077;49.704;9.908;2023-01-30T05:34:46;20.73;;;13.20;;
27670;SDS011;15077;49.704;9.908;2023-01-30T05:37:13;21.90;;;12.35;;
27670;SDS011;15077;49.704;9.908;2023-01-30T05:39:39;23.05;;;13.98;;
27670;SDS011;15077;49.704;9.908;2023-01-30T05:42:05;21.17;;;12.88;;
27670;SDS011;15077;49.704;9.908;2023-01-30T05:44:31;30.33;;;20.42;;
27670;SDS011;15077;49.704;9.908;2023-01-30T05:46:57;28.30;;;16.85;;
27670;SDS011;15077;49.704;9.908;2023-01-30T05:49:22;25.95;;;15.43;;
27670;SDS011;15077;49.704;9.908;2023-01-30T05:51:48;22.67;;;14.32;;
27670;SDS011;15077;49.704;9.908;2023-01-30T05:54:14;25.40;;;14.48;;
27670;SDS011;15077;49.704;9.908;2023-01-30T05:56:40;25.08;;;14.15;;
27670;SDS011;15077;49.704;9.908;2023-01-30T05:59:06;24.15;;;14.25;;
27670;SDS011;15077;49.704;9.908;2023-01-30T06:01:35;25.27;;;14.88;;
27670;SDS011;15077;49.704;9.908;2023-01-30T06:04:01;26.15;;;14.82;;
27670;SDS011;15077;49.704;9.908;2023-01-30T06:06:27;26.30;;;14.20;;
27670;SDS011;15077;49.704;9.908;2023-01-30T06:08:53;29.40;;;15.90;;
27670;SDS011;15077;49.704;9.908;2023-01-30T06:11:21;28.02;;;16.23;;
27670;SDS011;15077;49.704;9.908;2023-01-30T06:13:48;26.65;;;14.05;;
27670;SDS011;15077;49.704;9.908;2023-01-30T06:16:14;24.40;;;15.10;;
27670;SDS011;15077;49.704;9.908;2023-01-30T06:18:42;28.65;;;15.43;;
27670;SDS011;15077;49.704;9.908;2023-01-30T06:21:11;26.60;;;15.02;;
27670;SDS011;15077;49.704;9.908;2023-01-30T06:23:39;27.90;;;15.68;;
27670;SDS011;15077;49.704;9.908;2023-01-30T06:26:07;23.17;;;14.40;;
27670;SDS011;15077;49.704;9.908;2023-01-30T06:28:33;27.15;;;15.88;;
27670;SDS011;15077;49.704;9.908;2023-01-30T06:31:00;27.83;;;17.38;;
27670;SDS011;15077;49.704;9.908;2023-01-30T06:33:26;29.50;;;16.50;;
27670;SDS011;15077;49.704;9.908;2023-01-30T06:35:52;25.85;;;15.50;;
27670;SDS011;15077;49.704;9.908;2023-01-30T06:38:18;24.63;;;14.60;;
27670;SDS011;15077;49.704;9.908;2023-01-30T06:40:45;26.25;;;14.18;;
27670;SDS011;15077;49.704;9.908;2023-01-30T06:43:13;30.85;;;17.08;;
27670;SDS011;15077;49.704;9.908;2023-01-30T06:45:40;24.50;;;13.90;;
27670;SDS011;15077;49.704;9.908;2023-01-30T06:48:06;24.52;;;14.73;;
27670;SDS011;15077;49.704;9.908;2023-01-30T06:50:33;23.17;;;13.90;;
27670;SDS011;15077;49.704;9.908;2023-01-30T06:53:00;27.13;;;16.08;;
27670;SDS011;15077;49.704;9.908;2023-01-30T06:55:30;23.17;;;13.55;;
27670;SDS011;15077;49.704;9.908;2023-01-30T06:58:09;23.05;;;13.98;;
27670;SDS011;15077;49.704;9.908;2023-01-30T07:00:39;24.52;;;14.55;;
27670;SDS011;15077;49.704;9.908;2023-01-30T07:03:13;24.33;;;13.52;;
27670;SDS011;15077;49.704;9.908;2023-01-30T07:05:41;19.98;;;12.55;;
27670;SDS011;15077;49.704;9.908;2023-01-30T07:08:09;21.85;;;12.60;;
27670;SDS011;15077;49.704;9.908;2023-01-30T07:10:35;25.65;;;14.82;;
27670;SDS011;15077;49.704;9.908;2023-01-30T07:13:02;22.30;;;13.23;;
27670;SDS011;15077;49.704;9.908;2023-01-30T07:15:29;29.17;;;15.60;;
27670;SDS011;15077;49.704;9.908;2023-01-30T07:17:55;29.92;;;14.82;;
27670;SDS011;15077;49.704;9.908;2023-01-30T07:20:21;29.50;;;15.00;;
27670;SDS011;15077;49.704;9.908;2023-01-30T07:22:50;52.75;;;24.77;;
27670;SDS011;15077;49.704;9.908;2023-01-30T07:25:20;36.05;;;20.50;;
27670;SDS011;15077;49.704;9.908;2023-01-30T07:27:54;26.33;;;14.80;;
27670;SDS011;15077;49.704;9.908;2023-01-30T07:30:22;21.55;;;12.93;;
27670;SDS011;15077;49.704;9.908;2023-01-30T07:32:49;20.33;;;13.65;;
27670;SDS011;15077;49.704;9.908;2023-01-30T07:35:18;21.70;;;12.88;;
27670;SDS011;15077;49.704;9.908;2023-01-30T07:37:46;21.35;;;12.95;;
27670;SDS011;15077;49.704;9.908;2023-01-30T07:40:13;21.45;;;13.15;;
27670;SDS011;15077;49.704;9.908;2023-01-30T07:42:40;19.33;;;13.27;;
27670;SDS011;15077;49.704;9.908;2023-01-30T07:45:06;22.33;;;14.15;;
27670;SDS011;15077;49.704;9.908;2023-01-30T07:47:33;21.35;;;13.07;;
27670;SDS011;15077;49.704;9.908;2023-01-30T07:49:59;32.03;;;17.40;;
27670;SDS011;15077;49.704;9.908;2023-01-30T07:52:25;25.38;;;16.30;;
27670;SDS011;15077;49.704;9.908;2023-01-30T07:54:51;19.52;;;13.32;;
27670;SDS011;15077;49.704;9.908;2023-01-30T07:57:16;22.27;;;14.10;;
27670;SDS011;15077;49.704;9.908;2023-01-30T07:59:42;27.63;;;14.35;;
27670;SDS011;15077;49.704;9.908;2023-01-30T08:02:08;26.00;;;15.23;;
27670;SDS011;15077;49.704;9.908;2023-01-30T08:04:35;24.38;;;14.13;;
27670;SDS011;15077;49.704;9.908;2023-01-30T08:07:01;23.50;;;13.85;;
27670;SDS011;15077;49.704;9.908;2023-01-30T08:09:26;19.80;;;12.25;;
27670;SDS011;15077;49.704;9.908;2023-01-30T08:11:52;40.70;;;21.80;;
27670;SDS011;15077;49.704;9.908;2023-01-30T08:14:18;32.33;;;17.95;;
27670;SDS011;15077;49.704;9.908;2023-01-30T08:16:44;32.03;;;17.10;;
27670;SDS011;15077;49.704;9.908;2023-01-30T08:19:09;35.33;;;19.98;;
27670;SDS011;15077;49.704;9.908;2023-01-30T08:21:35;30.92;;;17.45;;
27670;SDS011;15077;49.704;9.908;2023-01-30T08:24:01;42.63;;;22.15;;
27670;SDS011;15077;49.704;9.908;2023-01-30T08:26:26;23.83;;;16.15;;
27670;SDS011;15077;49.704;9.908;2023-01-30T08:28:52;25.30;;;17.45;;
27670;SDS011;15077;49.704;9.908;2023-01-30T08:31:19;23.42;;;15.27;;
27670;SDS011;15077;49.704;9.908;2023-01-30T08:33:46;20.38;;;13.70;;
27670;SDS011;15077;49.704;9.908;2023-01-30T08:36:12;28.48;;;17.90;;
27670;SDS011;15077;49.704;9.908;2023-01-30T08:38:38;25.00;;;16.23;;
27670;SDS011;15077;49.704;9.908;2023-01-30T08:41:04;20.00;;;12.88;;
27670;SDS011;15077;49.704;9.908;2023-01-30T08:43:32;51.50;;;26.50;;
27670;SDS011;15077;49.704;9.908;2023-01-30T08:45:58;24.67;;;14.68;;
27670;SDS011;15077;49.704;9.908;2023-01-30T08:48:24;19.70;;;13.45;;
27670;SDS011;15077;49.704;9.908;2023-01-30T08:50:51;19.15;;;13.13;;
27670;SDS011;15077;49.704;9.908;2023-01-30T08:53:18;20.65;;;12.77;;
27670;SDS011;15077;49.704;9.908;2023-01-30T08:55:44;29.25;;;16.60;;
27670;SDS011;15077;49.704;9.908;2023-01-30T08:58:10;25.60;;;14.02;;
27670;SDS011;15077;49.704;9.908;2023-01-30T09:00:36;23.42;;;12.77;;
27670;SDS011;15077;49.704;9.908;2023-01-30T09:03:03;26.75;;;16.23;;
27670;SDS011;15077;49.704;9.908;2023-01-30T09:05:29;36.03;;;18.08;;
27670;SDS011;15077;49.704;9.908;2023-01-30T09:07:55;23.92;;;12.90;;
27670;SDS011;15077;49.704;9.908;2023-01-30T09:10:20;73.70;;;31.33;;
27670;SDS011;15077;49.704;9.908;2023-01-30T09:12:48;20.67;;;12.82;;
27670;SDS011;15077;49.704;9.908;2023-01-30T09:15:14;16.80;;;11.43;;
27670;SDS011;15077;49.704;9.908;2023-01-30T09:17:39;16.25;;;11.32;;
27670;SDS011;15077;49.704;9.908;2023-01-30T09:20:06;14.77;;;9.80;;
27670;SDS011;15077;49.704;9.908;2023-01-30T09:22:34;14.45;;;9.63;;
27670;SDS011;15077;49.704;9.908;2023-01-30T09:25:00;15.52;;;9.48;;
27670;SDS011;15077;49.704;9.908;2023-01-30T09:27:26;15.73;;;9.07;;
27670;SDS011;15077;49.704;9.908;2023-01-30T09:29:52;13.18;;;9.32;;
27670;SDS011;15077;49.704;9.908;2023-01-30T09:32:18;15.02;;;10.32;;
27670;SDS011;15077;49.704;9.908;2023-01-30T09:34:43;14.07;;;9.60;;
27670;SDS011;15077;49.704;9.908;2023-01-30T09:37:09;21.77;;;13.25;;
27670;SDS011;15077;49.704;9.908;2023-01-30T09:39:35;12.75;;;9.00;;
27670;SDS011;15077;49.704;9.908;2023-01-30T09:48:14;11.43;;;7.65;;
27670;SDS011;15077;49.704;9.908;2023-01-30T09:56:50;11.35;;;7.85;;
27670;SDS011;15077;49.704;9.908;2023-01-30T09:59:29;11.73;;;8.52;;
27670;SDS011;15077;49.704;9.908;2023-01-30T10:02:12;10.98;;;6.22;;
27670;SDS011;15077;49.704;9.908;2023-01-30T10:05:20;11.77;;;7.82;;
27670;SDS011;15077;49.704;9.908;2023-01-30T10:08:03;11.52;;;7.47;;
27670;SDS011;15077;49.704;9.908;2023-01-30T10:10:53;13.23;;;7.97;;
27670;SDS011;15077;49.704;9.908;2023-01-30T10:16:44;11.85;;;8.70;;
27670;SDS011;15077;49.704;9.908;2023-01-30T10:20:05;12.77;;;7.60;;
27670;SDS011;15077;49.704;9.908;2023-01-30T10:25:35;12.60;;;8.15;;
27670;SDS011;15077;49.704;9.908;2023-01-30T10:28:30;13.60;;;9.32;;
27670;SDS011;15077;49.704;9.908;2023-01-30T10:31:23;10.65;;;7.50;;
27670;SDS011;15077;49.704;9.908;2023-01-30T10:34:03;13.00;;;8.73;;
27670;SDS011;15077;49.704;9.908;2023-01-30T10:36:40;13.75;;;8.45;;
27670;SDS011;15077;49.704;9.908;2023-01-30T10:39:24;12.43;;;8.70;;
27670;SDS011;15077;49.704;9.908;2023-01-30T10:42:17;10.15;;;7.53;;
27670;SDS011;15077;49.704;9.908;2023-01-30T10:44:49;15.60;;;11.93;;
27670;SDS011;15077;49.704;9.908;2023-01-30T10:50:15;11.38;;;9.10;;
27670;SDS011;15077;49.704;9.908;2023-01-30T10:55:51;13.20;;;9.32;;
27670;SDS011;15077;49.704;9.908;2023-01-30T11:01:55;11.15;;;7.75;;
27670;SDS011;15077;49.704;9.908;2023-01-30T11:04:40;13.93;;;9.47;;
27670;SDS011;15077;49.704;9.908;2023-01-30T11:07:15;10.82;;;7.50;;
27670;SDS011;15077;49.704;9.908;2023-01-30T11:09:42;11.32;;;7.68;;
27670;SDS011;15077;49.704;9.908;2023-01-30T11:12:11;10.90;;;8.40;;
27670;SDS011;15077;49.704;9.908;2023-01-30T11:17:21;9.57;;;6.95;;
27670;SDS011;15077;49.704;9.908;2023-01-30T11:22:49;11.18;;;8.25;;
27670;SDS011;15077;49.704;9.908;2023-01-30T11:25:53;10.85;;;6.93;;
27670;SDS011;15077;49.704;9.908;2023-01-30T11:28:21;12.57;;;7.78;;
27670;SDS011;15077;49.704;9.908;2023-01-30T11:30:53;13.80;;;9.60;;
27670;SDS011;15077;49.704;9.908;2023-01-30T11:33:31;17.90;;;11.63;;
27670;SDS011;15077;49.704;9.908;2023-01-30T11:36:04;11.13;;;8.52;;
27670;SDS011;15077;49.704;9.908;2023-01-30T11:39:01;12.60;;;8.00;;
27670;SDS011;15077;49.704;9.908;2023-01-30T11:44:18;10.55;;;7.05;;
27670;SDS011;15077;49.704;9.908;2023-01-30T11:46:57;12.13;;;8.30;;
27670;SDS011;15077;49.704;9.908;2023-01-30T11:49:27;11.77;;;7.55;;
27670;SDS011;15077;49.704;9.908;2023-01-30T11:52:02;13.48;;;8.73;;
27670;SDS011;15077;49.704;9.908;2023-01-30T11:54:36;15.18;;;10.45;;
27670;SDS011;15077;49.704;9.908;2023-01-30T11:57:12;11.50;;;8.75;;
27670;SDS011;15077;49.704;9.908;2023-01-30T12:02:28;13.98;;;8.57;;
27670;SDS011;15077;49.704;9.908;2023-01-30T12:05:00;10.20;;;6.40;;
27670;SDS011;15077;49.704;9.908;2023-01-30T12:07:42;10.35;;;6.72;;
27670;SDS011;15077;49.704;9.908;2023-01-30T12:10:24;11.88;;;8.02;;
27670;SDS011;15077;49.704;9.908;2023-01-30T12:13:07;18.75;;;12.55;;
27670;SDS011;15077;49.704;9.908;2023-01-30T12:15:45;12.85;;;9.25;;
27670;SDS011;15077;49.704;9.908;2023-01-30T12:18:36;20.75;;;12.48;;
27670;SDS011;15077;49.704;9.908;2023-01-30T12:24:04;23.52;;;15.80;;
27670;SDS011;15077;49.704;9.908;2023-01-30T12:27:00;17.20;;;11.63;;
27670;SDS011;15077;49.704;9.908;2023-01-30T12:29:49;14.85;;;10.20;;
27670;SDS011;15077;49.704;9.908;2023-01-30T12:32:26;15.07;;;9.80;;
27670;SDS011;15077;49.704;9.908;2023-01-30T12:34:55;24.45;;;13.60;;
27670;SDS011;15077;49.704;9.908;2023-01-30T12:37:38;12.57;;;8.05;;
27670;SDS011;15077;49.704;9.908;2023-01-30T12:57:18;5.35;;;4.05;;
27670;SDS011;15077;49.704;9.908;2023-01-30T13:06:05;20.10;;;11.27;;
27670;SDS011;15077;49.704;9.908;2023-01-30T13:08:58;26.80;;;14.70;;
27670;SDS011;15077;49.704;9.908;2023-01-30T13:15:25;27.38;;;13.82;;
27670;SDS011;15077;49.704;9.908;2023-01-30T13:21:28;17.58;;;9.60;;
27670;SDS011;15077;49.704;9.908;2023-01-30T13:26:51;8.63;;;5.63;;
27670;SDS011;15077;49.704;9.908;2023-01-30T13:29:32;13.45;;;6.97;;
27670;SDS011;15077;49.704;9.908;2023-01-30T13:32:04;9.10;;;6.65;;
27670;SDS011;15077;49.704;9.908;2023-01-30T13:34:41;9.38;;;6.70;;
27670;SDS011;15077;49.704;9.908;2023-01-30T13:37:18;9.77;;;6.22;;
27670;SDS011;15077;49.704;9.908;2023-01-30T13:45:12;6.78;;;5.47;;
27670;SDS011;15077;49.704;9.908;2023-01-30T13:57:20;8.43;;;4.95;;
27670;SDS011;15077;49.704;9.908;2023-01-30T14:08:45;7.97;;;5.00;;
27670;SDS011;15077;49.704;9.908;2023-01-30T14:16:50;4.97;;;3.78;;
27670;SDS011;15077;49.704;9.908;2023-01-30T14:22:17;8.50;;;5.88;;
27670;SDS011;15077;49.704;9.908;2023-01-30T14:30:52;10.60;;;5.65;;
27670;SDS011;15077;49.704;9.908;2023-01-30T14:35:46;4.80;;;3.30;;
27670;SDS011;15077;49.704;9.908;2023-01-30T14:38:38;5.55;;;3.85;;
27670;SDS011;15077;49.704;9.908;2023-01-30T14:46:52;9.52;;;5.95;;
27670;SDS011;15077;49.704;9.908;2023-01-30T14:59:28;10.18;;;6.22;;
27670;SDS011;15077;49.704;9.908;2023-01-30T15:07:30;8.75;;;5.70;;
27670;SDS011;15077;49.704;9.908;2023-01-30T15:19:00;10.85;;;6.50;;
27670;SDS011;15077;49.704;9.908;2023-01-30T15:28:03;9.35;;;5.60;;
27670;SDS011;15077;49.704;9.908;2023-01-30T15:30:53;9.85;;;7.00;;
27670;SDS011;15077;49.704;9.908;2023-01-30T15:33:42;10.55;;;7.22;;
27670;SDS011;15077;49.704;9.908;2023-01-30T15:41:37;17.55;;;9.35;;
27670;SDS011;15077;49.704;9.908;2023-01-30T15:47:03;14.90;;;9.82;;
27670;SDS011;15077;49.704;9.908;2023-01-30T15:49:52;11.70;;;8.75;;
27670;SDS011;15077;49.704;9.908;2023-01-30T15:52:35;11.80;;;8.23;;
27670;SDS011;15077;49.704;9.908;2023-01-30T15:55:12;11.63;;;7.80;;
27670;SDS011;15077;49.704;9.908;2023-01-30T15:57:44;13.55;;;8.35;;
27670;SDS011;15077;49.704;9.908;2023-01-30T16:02:55;14.25;;;9.30;;
27670;SDS011;15077;49.704;9.908;2023-01-30T16:05:25;15.63;;;8.55;;
27670;SDS011;15077;49.704;9.908;2023-01-30T16:07:52;18.13;;;11.48;;
27670;SDS011;15077;49.704;9.908;2023-01-30T16:12:54;23.58;;;20.13;;
27670;SDS011;15077;49.704;9.908;2023-01-30T16:18:05;13.27;;;8.77;;
27670;SDS011;15077;49.704;9.908;2023-01-30T16:20:54;12.82;;;10.10;;
27670;SDS011;15077;49.704;9.908;2023-01-30T16:24:12;14.90;;;10.10;;
27670;SDS011;15077;49.704;9.908;2023-01-30T16:26:17;12.52;;;8.55;;
27670;SDS011;15077;49.704;9.908;2023-01-30T16:28:46;10.20;;;7.50;;
27670;SDS011;15077;49.704;9.908;2023-01-30T16:31:14;12.43;;;7.40;;
27670;SDS011;15077;49.704;9.908;2023-01-30T16:33:48;11.10;;;7.65;;
27670;SDS011;15077;49.704;9.908;2023-01-30T16:38:44;11.93;;;8.63;;
27670;SDS011;15077;49.704;9.908;2023-01-30T16:49:36;11.07;;;6.93;;
27670;SDS011;15077;49.704;9.908;2023-01-30T16:52:20;14.20;;;7.90;;
27670;SDS011;15077;49.704;9.908;2023-01-30T16:55:01;10.88;;;7.97;;
27670;SDS011;15077;49.704;9.908;2023-01-30T16:57:40;8.57;;;6.33;;
27670;SDS011;15077;49.704;9.908;2023-01-30T17:05:26;24.10;;;14.85;;
27670;SDS011;15077;49.704;9.908;2023-01-30T17:07:56;18.60;;;12.15;;
27670;SDS011;15077;49.704;9.908;2023-01-30T17:13:38;16.45;;;10.35;;
27670;SDS011;15077;49.704;9.908;2023-01-30T17:18:48;15.30;;;10.02;;
27670;SDS011;15077;49.704;9.908;2023-01-30T17:21:16;17.13;;;9.90;;
27670;SDS011;15077;49.704;9.908;2023-01-30T17:23:46;11.15;;;6.93;;
27670;SDS011;15077;49.704;9.908;2023-01-30T17:26:17;9.13;;;6.88;;
27670;SDS011;15077;49.704;9.908;2023-01-30T17:28:43;24.98;;;14.90;;
27670;SDS011;15077;49.704;9.908;2023-01-30T17:31:12;23.70;;;12.68;;
27670;SDS011;15077;49.704;9.908;2023-01-30T17:33:40;16.00;;;9.60;;
27670;SDS011;15077;49.704;9.908;2023-01-30T17:38:45;12.70;;;8.07;;
27670;SDS011;15077;49.704;9.908;2023-01-30T17:41:16;14.27;;;8.65;;
27670;SDS011;15077;49.704;9.908;2023-01-30T17:43:55;13.50;;;8.07;;
27670;SDS011;15077;49.704;9.908;2023-01-30T17:46:22;17.13;;;10.45;;
27670;SDS011;15077;49.704;9.908;2023-01-30T17:49:00;18.25;;;12.63;;
27670;SDS011;15077;49.704;9.908;2023-01-30T17:51:25;16.50;;;10.48;;
27670;SDS011;15077;49.704;9.908;2023-01-30T17:53:51;15.38;;;8.52;;
27670;SDS011;15077;49.704;9.908;2023-01-30T17:56:18;15.88;;;8.25;;
27670;SDS011;15077;49.704;9.908;2023-01-30T17:58:54;17.77;;;10.65;;
27670;SDS011;15077;49.704;9.908;2023-01-30T18:01:19;17.15;;;10.05;;
27670;SDS011;15077;49.704;9.908;2023-01-30T18:03:45;15.20;;;8.50;;
27670;SDS011;15077;49.704;9.908;2023-01-30T18:06:11;14.50;;;9.25;;
27670;SDS011;15077;49.704;9.908;2023-01-30T18:08:39;14.50;;;9.65;;
27670;SDS011;15077;49.704;9.908;2023-01-30T18:11:05;8.70;;;6.93;;
27670;SDS011;15077;49.704;9.908;2023-01-30T18:13:35;15.40;;;7.15;;
27670;SDS011;15077;49.704;9.908;2023-01-30T18:16:08;8.70;;;6.47;;
27670;SDS011;15077;49.704;9.908;2023-01-30T18:18:45;10.68;;;7.15;;
27670;SDS011;15077;49.704;9.908;2023-01-30T18:21:11;9.57;;;6.45;;
27670;SDS011;15077;49.704;9.908;2023-01-30T18:23:36;13.02;;;6.78;;
27670;SDS011;15077;49.704;9.908;2023-01-30T18:26:03;10.15;;;5.88;;
27670;SDS011;15077;49.704;9.908;2023-01-30T18:28:29;8.63;;;6.18;;
27670;SDS011;15077;49.704;9.908;2023-01-30T18:30:55;11.35;;;6.00;;
27670;SDS011;15077;49.704;9.908;2023-01-30T18:33:21;9.77;;;6.05;;
27670;SDS011;15077;49.704;9.908;2023-01-30T18:35:46;9.82;;;6.63;;
27670;SDS011;15077;49.704;9.908;2023-01-30T18:38:12;7.70;;;5.40;;